Adel, OR

6:05 PM PST on December 24, 2014 (GMT -0800)
Lake County | Change Station
CLOSE
Current Station
Airport
Location: Lakeview AWS,
Elevation: 4728 ft
Nearby Weather Stations
Active Advisory: Special Statement Active Notice: Record Report

Elev 4728 ft 42.16 °N, 120.40 °W | Updated 30 minutes ago

Overcast
Overcast
30 °F
Feels Like 20 °F
N
14
Wind Variable Wind from NNW
Gusts 17 mph

Today
High -- | Low -- °F
--% Chance of Precip.
Yesterday
High -- | Low -- °F
Precip. -- in
7:25 AM 4:31 PM
Waxing Crescent, 12% visible
Pressure 29.82 in
Visibility 9.0 miles
Clouds Mostly Cloudy 2600 ft
Mostly Cloudy 4100 ft
Overcast 10000 ft
Windchill 20 °F
Dew Point 27 °F
Humidity 86%
Rainfall 0.04 in
Snow Depth Not available.
UV 0 out of 12
Pollen .30 out of 12
Air Quality Not available.
Flu Activity Not available.
METAR KLKV 250135Z 33012G15KT 9SM BKN026 BKN041 OVC100 M01/M03 A2982 RMK AO1

More Conditions Fewer Conditions

Pressure 29.82 in
Visibility 9.0 miles
Clouds Mostly Cloudy 2600 ft
Mostly Cloudy 4100 ft
Overcast 10000 ft
Windchill 20 °F
Dew Point 27 °F
Humidity 86%
Rainfall 0.04 in
Snow Depth Not available.
UV 0 out of 12
Pollen .30 out of 12
Air Quality Not available.
Flu Activity Not available.
METAR KLKV 250135Z 33012G15KT 9SM BKN026 BKN041 OVC100 M01/M03 A2982 RMK AO1

More Conditions Fewer Conditions

10-Day Weather Forecast

Almanac

Astronomy

Dec. 24, 2014 Rise Set
Actual Time
Civil Twilight
Nautical Twilight
Astronomical Twilight
Moon
Length of Visible Light
Length of Day
Tomorrow will be .
, % of the Moon is Illuminated

Today's Extremes

State Highs State Lows

Community

WunderPhotos

Upload Photos

1,780,208 photos uploaded!

WunderBlogs® & News

Nearby

Air Quality

  Air Quality AQ Index Pollutant
Not available.

Snow Depth

Station Depth Elevation

Earthquake Activity

City Distance Mag. Time & Date
Minimum magnitude displayed is 2.5.

Coastal Water Temperatures

Place Temperature

Nearby Weather Stations